Time;durP1;ratioP1;P1;durP2;ratioP2;P2;SDS_P1;SDS_P2;PMS_P1;PMS_P2;Temp;Humidity;BMP_temperature;BMP_pressure;BME280_temperature;BME280_humidity;BME280_pressure;Samples;Min_cycle;Max_cycle;Signal;HPM_P1;HPM_P2
2023/08/01 00:01:18;;;;;;;;;;;15.90;99.90;;;;;;4991218;28;19921;-59
2023/08/01 00:03:45;;;;;;;;;;;15.90;99.90;;;;;;4990821;28;19922;-59
2023/08/01 00:06:11;;;;;;;;;;;15.90;99.90;;;;;;4990598;28;19953;-58
2023/08/01 00:08:38;;;;;;;;;;;15.90;99.90;;;;;;4991033;28;19980;-59
2023/08/01 00:11:05;;;;;;;;;;;15.90;99.90;;;;;;4990768;28;19921;-58
2023/08/01 00:13:32;;;;;;;;;;;15.90;99.90;;;;;;4993010;28;19929;-59
2023/08/01 00:15:58;;;;;;;;;;;15.90;99.90;;;;;;4994292;28;19922;-59
2023/08/01 00:18:28;;;;;;;;;;;15.90;99.90;;;;;;4990666;28;19922;-59
2023/08/01 00:20:55;;;;;;;;;;;15.90;99.90;;;;;;4990471;28;19921;-59
2023/08/01 00:23:21;;;;;;;;;;;15.80;99.90;;;;;;4990655;28;19983;-59
2023/08/01 00:25:51;;;;;;;;;;;15.80;99.90;;;;;;4990207;28;19929;-59
2023/08/01 00:28:18;;;;;;;;;;;15.80;99.90;;;;;;4990636;28;19928;-59
2023/08/01 00:30:45;;;;;;;;;;;15.80;99.90;;;;;;4990478;28;20451;-59
2023/08/01 00:33:11;;;;;;;;;;;15.70;99.90;;;;;;4990400;28;19936;-59
2023/08/01 00:35:38;;;;;;;;;;;15.70;99.90;;;;;;4990446;28;20017;-59
2023/08/01 00:38:05;;;;;;;;;;;15.70;99.90;;;;;;4990928;28;19977;-59
2023/08/01 00:40:32;;;;;;;;;;;15.70;99.90;;;;;;4990233;28;19948;-59
2023/08/01 00:42:58;;;;;;;;;;;15.70;99.90;;;;;;4990220;28;19944;-59
2023/08/01 00:45:28;;;;;;;;;;;15.70;99.90;;;;;;4990093;28;19944;-59
2023/08/01 00:47:55;;;;;;;;;;;15.70;99.90;;;;;;4990287;28;20021;-59
2023/08/01 00:50:22;;;;;;;;;;;15.60;99.90;;;;;;4988320;28;19926;-61
2023/08/01 00:52:50;;;;;;;;;;;15.60;99.90;;;;;;4989158;28;19928;-58
2023/08/01 00:55:16;;;;;;;;;;;15.60;99.90;;;;;;4990156;28;19977;-58
2023/08/01 00:57:43;;;;;;;;;;;15.60;99.90;;;;;;4988672;28;19925;-59
2023/08/01 01:00:10;;;;;;;;;;;15.60;99.90;;;;;;4989706;28;19921;-58
2023/08/01 01:02:37;;;;;;;;;;;15.60;99.90;;;;;;4989890;28;19926;-59
2023/08/01 01:05:05;;;;;;;;;;;15.50;99.90;;;;;;4992973;28;19965;-59
2023/08/01 01:07:31;;;;;;;;;;;15.50;99.90;;;;;;4989325;28;19922;-59
2023/08/01 01:09:58;;;;;;;;;;;15.50;99.90;;;;;;4989730;28;19950;-59
2023/08/01 01:12:25;;;;;;;;;;;15.50;99.90;;;;;;4642721;28;9999838;-60
2023/08/01 01:14:52;;;;;;;;;;;15.50;99.90;;;;;;4988317;28;19932;-60
2023/08/01 01:17:18;;;;;;;;;;;15.50;99.90;;;;;;4989595;28;19921;-60
2023/08/01 01:19:45;;;;;;;;;;;15.50;99.90;;;;;;4989861;28;20069;-59
2023/08/01 01:22:12;;;;;;;;;;;15.40;99.90;;;;;;4989615;28;19928;-60
2023/08/01 01:24:39;;;;;;;;;;;15.40;99.90;;;;;;4993163;28;20297;-62
2023/08/01 01:27:06;;;;;;;;;;;15.40;99.90;;;;;;4987707;28;20328;-60
2023/08/01 01:29:32;;;;;;;;;;;15.50;99.90;;;;;;4987726;28;19926;-60
2023/08/01 01:31:59;;;;;;;;;;;15.50;99.90;;;;;;4988607;28;19926;-61
2023/08/01 01:34:26;;;;;;;;;;;15.60;99.90;;;;;;4988684;28;19921;-58
2023/08/01 01:36:53;;;;;;;;;;;15.60;99.90;;;;;;4987933;28;19936;-59
2023/08/01 01:39:20;;;;;;;;;;;15.50;99.90;;;;;;4988070;28;19948;-59
2023/08/01 01:41:47;;;;;;;;;;;15.50;99.90;;;;;;4988944;28;19921;-59
2023/08/01 01:44:13;;;;;;;;;;;15.50;99.90;;;;;;4989418;28;19976;-59
2023/08/01 01:46:40;;;;;;;;;;;15.60;99.90;;;;;;4987945;28;20404;-61
2023/08/01 01:49:07;;;;;;;;;;;15.60;99.90;;;;;;4988842;28;20013;-59
2023/08/01 01:51:34;;;;;;;;;;;15.60;99.90;;;;;;5006442;28;19925;-59
2023/08/01 01:54:01;;;;;;;;;;;15.60;99.90;;;;;;4988951;28;19922;-59
2023/08/01 01:56:27;;;;;;;;;;;15.50;99.90;;;;;;4989285;28;19972;-59
2023/08/01 01:58:54;;;;;;;;;;;15.50;99.90;;;;;;4988916;28;19944;-59
2023/08/01 02:01:21;;;;;;;;;;;15.60;99.90;;;;;;4989607;28;19976;-59
2023/08/01 02:03:48;;;;;;;;;;;15.60;99.90;;;;;;4989001;28;20285;-59
2023/08/01 02:06:14;;;;;;;;;;;15.60;99.90;;;;;;4989084;28;19922;-58
2023/08/01 02:08:41;;;;;;;;;;;15.60;99.90;;;;;;4988446;28;19922;-58
2023/08/01 02:11:08;;;;;;;;;;;15.60;99.90;;;;;;4988065;28;19976;-60
2023/08/01 02:13:35;;;;;;;;;;;15.70;99.90;;;;;;4988972;28;19972;-58
2023/08/01 02:16:01;;;;;;;;;;;15.60;99.90;;;;;;4989620;28;19928;-58
2023/08/01 02:18:28;;;;;;;;;;;15.70;99.90;;;;;;4988622;28;20472;-58
2023/08/01 02:20:55;;;;;;;;;;;15.70;99.90;;;;;;4989051;28;19921;-60
2023/08/01 02:23:22;;;;;;;;;;;15.70;99.90;;;;;;4988875;28;19922;-58
2023/08/01 02:25:48;;;;;;;;;;;15.70;99.90;;;;;;4988634;28;19945;-58
2023/08/01 02:28:15;;;;;;;;;;;15.70;99.90;;;;;;4988575;28;19925;-58
2023/08/01 02:30:42;;;;;;;;;;;15.70;99.90;;;;;;4988544;28;19965;-58
2023/08/01 02:33:09;;;;;;;;;;;15.70;99.90;;;;;;4988799;28;19937;-59
2023/08/01 02:35:36;;;;;;;;;;;15.80;99.90;;;;;;4987105;28;19949;-59
2023/08/01 02:38:03;;;;;;;;;;;15.80;99.90;;;;;;4988530;28;19925;-58
2023/08/01 02:40:30;;;;;;;;;;;15.80;99.90;;;;;;4988954;28;19949;-58
2023/08/01 02:42:57;;;;;;;;;;;15.70;99.90;;;;;;4994675;28;20380;-63
2023/08/01 02:45:24;;;;;;;;;;;15.80;99.90;;;;;;4990053;28;19988;-58
2023/08/01 02:47:50;;;;;;;;;;;15.70;99.90;;;;;;4991120;28;19948;-58
2023/08/01 02:50:17;;;;;;;;;;;15.80;99.90;;;;;;4991629;28;19922;-57
2023/08/01 02:52:44;;;;;;;;;;;15.70;99.90;;;;;;4991762;28;19925;-58
2023/08/01 02:55:11;;;;;;;;;;;15.80;99.90;;;;;;4991738;28;19926;-59
2023/08/01 02:57:37;;;;;;;;;;;15.80;99.90;;;;;;4992412;28;19922;-58
2023/08/01 03:00:05;;;;;;;;;;;15.80;99.90;;;;;;4990543;28;19925;-58
2023/08/01 03:02:32;;;;;;;;;;;15.70;99.90;;;;;;4991989;28;20016;-58
2023/08/01 03:04:59;;;;;;;;;;;15.80;99.90;;;;;;4991401;28;20055;-58
2023/08/01 03:07:26;;;;;;;;;;;15.70;99.90;;;;;;4988518;28;19921;-58
2023/08/01 03:09:52;;;;;;;;;;;15.70;99.90;;;;;;4991871;28;19930;-58
2023/08/01 03:12:19;;;;;;;;;;;15.70;99.90;;;;;;4991598;28;19925;-58
2023/08/01 03:14:47;;;;;;;;;;;15.80;99.90;;;;;;4977569;28;19928;-58
2023/08/01 03:17:14;;;;;;;;;;;15.70;99.90;;;;;;4990297;28;19930;-59
2023/08/01 03:19:41;;;;;;;;;;;15.70;99.90;;;;;;4991674;28;19937;-59
2023/08/01 03:22:08;;;;;;;;;;;15.70;99.90;;;;;;4991227;28;19922;-58
2023/08/01 03:24:34;;;;;;;;;;;15.70;99.90;;;;;;4991720;28;19926;-59
2023/08/01 03:27:01;;;;;;;;;;;15.70;99.90;;;;;;4990940;28;20409;-59
2023/08/01 03:29:28;;;;;;;;;;;15.70;99.90;;;;;;4993713;28;20043;-59
2023/08/01 03:31:55;;;;;;;;;;;15.80;99.90;;;;;;4991186;28;19972;-58
2023/08/01 03:34:21;;;;;;;;;;;15.70;99.90;;;;;;4991423;28;19944;-59
2023/08/01 03:36:48;;;;;;;;;;;15.70;99.90;;;;;;4991076;28;20436;-59
2023/08/01 03:39:15;;;;;;;;;;;15.70;99.90;;;;;;4991781;28;19929;-59
2023/08/01 03:41:42;;;;;;;;;;;15.70;99.90;;;;;;4991099;28;19928;-60
2023/08/01 03:44:08;;;;;;;;;;;15.60;99.90;;;;;;4991154;28;19922;-60
2023/08/01 03:46:35;;;;;;;;;;;15.70;99.90;;;;;;4990988;28;19929;-60
2023/08/01 03:49:02;;;;;;;;;;;15.70;99.90;;;;;;4991332;28;19922;-63
2023/08/01 03:51:29;;;;;;;;;;;15.70;99.90;;;;;;4989577;28;19921;-59
2023/08/01 03:53:55;;;;;;;;;;;15.70;99.90;;;;;;4990802;28;19972;-59
2023/08/01 03:56:39;;;;;;;;;;;15.60;99.90;;;;;;4990928;28;19922;-60
2023/08/01 03:59:07;;;;;;;;;;;15.60;99.90;;;;;;4991576;28;19976;-59
2023/08/01 04:01:33;;;;;;;;;;;15.60;99.90;;;;;;4990972;28;19921;-58
2023/08/01 04:04:00;;;;;;;;;;;15.60;99.90;;;;;;4990960;28;19952;-58
2023/08/01 04:06:27;;;;;;;;;;;15.50;99.90;;;;;;4988628;28;19953;-58
2023/08/01 04:08:56;;;;;;;;;;;15.50;99.90;;;;;;4990850;28;19940;-58
2023/08/01 04:11:23;;;;;;;;;;;15.50;99.90;;;;;;4990899;28;19928;-58
2023/08/01 04:13:49;;;;;;;;;;;15.50;99.90;;;;;;4990067;28;19925;-60
2023/08/01 04:16:16;;;;;;;;;;;15.50;99.90;;;;;;4990912;28;19922;-58
2023/08/01 04:18:43;;;;;;;;;;;15.40;99.90;;;;;;4989230;28;19930;-58
2023/08/01 04:21:11;;;;;;;;;;;15.40;99.90;;;;;;4990885;28;20368;-60
2023/08/01 04:23:38;;;;;;;;;;;15.40;99.90;;;;;;4989871;28;20431;-58
2023/08/01 04:26:06;;;;;;;;;;;15.30;99.90;;;;;;4990728;28;19926;-57
2023/08/01 04:28:33;;;;;;;;;;;15.30;99.90;;;;;;4989840;28;19937;-58
2023/08/01 04:31:00;;;;;;;;;;;15.30;99.90;;;;;;4990778;28;20540;-58
2023/08/01 04:33:26;;;;;;;;;;;15.30;99.90;;;;;;4989684;28;19929;-59
2023/08/01 04:35:53;;;;;;;;;;;15.20;99.90;;;;;;4990681;28;19929;-58
2023/08/01 04:38:20;;;;;;;;;;;15.20;99.90;;;;;;4989715;28;19937;-58
2023/08/01 04:40:47;;;;;;;;;;;15.20;99.90;;;;;;4990534;28;19929;-60
2023/08/01 04:43:13;;;;;;;;;;;15.20;99.90;;;;;;4988927;28;19921;-58
2023/08/01 04:45:40;;;;;;;;;;;15.20;99.90;;;;;;4989425;28;19921;-58
2023/08/01 04:48:07;;;;;;;;;;;15.10;99.90;;;;;;4989773;28;19921;-58
2023/08/01 04:50:33;;;;;;;;;;;15.10;99.90;;;;;;4989906;28;20502;-60
2023/08/01 04:53:00;;;;;;;;;;;15.10;99.90;;;;;;4989320;28;19922;-60
2023/08/01 04:55:27;;;;;;;;;;;15.10;99.90;;;;;;4989913;28;19921;-60
2023/08/01 04:57:53;;;;;;;;;;;15.10;99.90;;;;;;4989800;28;19930;-59
2023/08/01 05:00:20;;;;;;;;;;;15.10;99.90;;;;;;4989394;28;19921;-59
2023/08/01 05:02:47;;;;;;;;;;;15.10;99.90;;;;;;4989335;28;20415;-58
2023/08/01 05:05:15;;;;;;;;;;;15.10;99.90;;;;;;4988774;28;20100;-58
2023/08/01 05:07:42;;;;;;;;;;;15.10;99.90;;;;;;4989703;28;19922;-59
2023/08/01 05:10:09;;;;;;;;;;;15.10;99.90;;;;;;4989178;28;19921;-58
2023/08/01 05:12:36;;;;;;;;;;;15.00;99.90;;;;;;4989643;28;19997;-58
2023/08/01 05:15:03;;;;;;;;;;;15.00;99.90;;;;;;4989328;28;20308;-59
2023/08/01 05:17:30;;;;;;;;;;;15.10;99.90;;;;;;4990121;28;20016;-59
2023/08/01 05:19:57;;;;;;;;;;;15.10;99.90;;;;;;4989270;28;19922;-60
2023/08/01 05:22:23;;;;;;;;;;;15.10;99.90;;;;;;4989578;28;19929;-59
2023/08/01 05:24:50;;;;;;;;;;;15.10;99.90;;;;;;4989117;28;19929;-59
2023/08/01 05:27:17;;;;;;;;;;;15.10;99.90;;;;;;4989348;28;19945;-60
2023/08/01 05:29:44;;;;;;;;;;;15.10;99.90;;;;;;4988828;28;19922;-59
2023/08/01 05:32:11;;;;;;;;;;;15.10;99.90;;;;;;4989293;28;20012;-59
2023/08/01 05:34:37;;;;;;;;;;;15.10;99.90;;;;;;4989634;28;19921;-59
2023/08/01 05:37:04;;;;;;;;;;;15.10;99.90;;;;;;4989223;28;19948;-59
2023/08/01 05:39:31;;;;;;;;;;;15.20;99.90;;;;;;4642474;28;9999720;-59
2023/08/01 05:41:58;;;;;;;;;;;15.10;99.90;;;;;;4983397;28;20257;-62
2023/08/01 05:44:25;;;;;;;;;;;15.20;99.90;;;;;;4986507;28;20309;-59
2023/08/01 05:46:51;;;;;;;;;;;15.20;99.90;;;;;;4985232;28;19988;-59
2023/08/01 05:49:18;;;;;;;;;;;15.20;99.90;;;;;;4987243;28;19925;-58
2023/08/01 05:51:46;;;;;;;;;;;15.20;99.90;;;;;;4985233;28;20277;-59
2023/08/01 05:54:12;;;;;;;;;;;15.20;99.90;;;;;;4990931;28;19929;-58
2023/08/01 05:56:39;;;;;;;;;;;15.20;99.90;;;;;;4987730;28;20355;-59
2023/08/01 05:59:06;;;;;;;;;;;15.10;99.90;;;;;;4993973;28;19936;-59
2023/08/01 06:01:33;;;;;;;;;;;15.20;99.90;;;;;;4987662;28;19961;-59
2023/08/01 06:04:00;;;;;;;;;;;15.20;99.90;;;;;;4992863;28;20020;-59
2023/08/01 06:06:27;;;;;;;;;;;15.30;99.90;;;;;;4988652;28;19925;-59
2023/08/01 06:08:54;;;;;;;;;;;15.30;99.90;;;;;;4986299;28;19922;-59
2023/08/01 06:11:20;;;;;;;;;;;15.40;99.90;;;;;;4985796;28;19948;-59
2023/08/01 06:13:47;;;;;;;;;;;15.40;99.90;;;;;;4984789;28;19948;-58
2023/08/01 06:16:14;;;;;;;;;;;15.50;99.90;;;;;;4984751;28;19947;-58
2023/08/01 06:18:41;;;;;;;;;;;15.50;99.90;;;;;;4989891;28;19932;-60
2023/08/01 06:21:07;;;;;;;;;;;15.50;99.90;;;;;;4989538;28;19947;-59
2023/08/01 06:23:34;;;;;;;;;;;15.60;99.90;;;;;;4989429;28;20278;-58
2023/08/01 06:26:01;;;;;;;;;;;15.70;99.90;;;;;;4989870;28;19925;-59
2023/08/01 06:28:28;;;;;;;;;;;15.80;99.90;;;;;;4989597;28;20399;-58
2023/08/01 06:30:55;;;;;;;;;;;15.90;99.90;;;;;;4989301;28;19925;-59
2023/08/01 06:33:21;;;;;;;;;;;15.90;99.90;;;;;;4989003;28;19921;-59
2023/08/01 06:35:49;;;;;;;;;;;16.00;99.90;;;;;;4987192;28;19925;-57
2023/08/01 06:38:15;;;;;;;;;;;15.90;99.90;;;;;;4988781;28;19991;-60
2023/08/01 06:40:42;;;;;;;;;;;15.90;99.90;;;;;;4986682;28;19925;-59
2023/08/01 06:43:09;;;;;;;;;;;15.90;99.90;;;;;;4988910;28;20284;-58
2023/08/01 06:45:36;;;;;;;;;;;15.90;99.90;;;;;;4989640;28;19967;-58
2023/08/01 06:48:03;;;;;;;;;;;16.00;99.90;;;;;;4988634;28;20585;-58
2023/08/01 06:50:30;;;;;;;;;;;16.00;99.90;;;;;;4985673;28;19925;-58
2023/08/01 06:52:56;;;;;;;;;;;16.10;99.90;;;;;;4988726;28;19980;-60
2023/08/01 06:55:23;;;;;;;;;;;16.10;99.90;;;;;;4989134;28;19940;-60
2023/08/01 06:57:50;;;;;;;;;;;16.10;99.90;;;;;;4988996;28;19925;-60
2023/08/01 07:00:17;;;;;;;;;;;16.20;99.90;;;;;;4988892;28;19925;-60
2023/08/01 07:02:43;;;;;;;;;;;16.20;99.90;;;;;;4988463;28;20389;-59
2023/08/01 07:05:10;;;;;;;;;;;16.20;99.90;;;;;;4988330;28;19965;-60
2023/08/01 07:07:37;;;;;;;;;;;16.20;99.90;;;;;;4988060;28;20415;-60
2023/08/01 07:10:04;;;;;;;;;;;16.30;99.90;;;;;;4988674;28;19929;-59
2023/08/01 07:12:31;;;;;;;;;;;16.40;99.90;;;;;;4988595;28;19926;-60
2023/08/01 07:14:57;;;;;;;;;;;16.50;99.90;;;;;;4989149;28;20332;-59
2023/08/01 07:17:27;;;;;;;;;;;16.60;99.90;;;;;;4985974;28;19948;-59
2023/08/01 07:19:54;;;;;;;;;;;16.80;99.90;;;;;;4988728;28;20687;-58
2023/08/01 07:22:21;;;;;;;;;;;17.00;99.90;;;;;;4988426;28;19932;-58
2023/08/01 07:24:52;;;;;;;;;;;17.10;99.90;;;;;;4988053;28;20373;-59
2023/08/01 07:27:18;;;;;;;;;;;17.00;99.90;;;;;;4988951;28;20546;-59
2023/08/01 07:29:45;;;;;;;;;;;16.90;99.90;;;;;;4987345;28;19988;-59
2023/08/01 07:32:14;;;;;;;;;;;16.90;99.90;;;;;;4988198;28;20372;-59
2023/08/01 07:34:40;;;;;;;;;;;17.00;99.90;;;;;;4988172;28;19947;-60
2023/08/01 07:37:07;;;;;;;;;;;17.10;99.90;;;;;;4988698;28;19996;-59
2023/08/01 07:39:34;;;;;;;;;;;17.00;99.90;;;;;;4987791;28;19926;-59
2023/08/01 07:42:01;;;;;;;;;;;17.10;99.90;;;;;;4988063;28;19922;-60
2023/08/01 07:44:29;;;;;;;;;;;17.20;99.90;;;;;;4987899;28;20270;-58
2023/08/01 07:46:56;;;;;;;;;;;17.30;99.90;;;;;;4987811;28;19921;-57
2023/08/01 07:49:23;;;;;;;;;;;17.30;99.90;;;;;;4987345;28;19937;-58
2023/08/01 07:51:50;;;;;;;;;;;17.40;99.90;;;;;;4988243;28;19928;-59
2023/08/01 07:54:17;;;;;;;;;;;17.60;99.90;;;;;;4988249;28;20016;-57
2023/08/01 07:56:45;;;;;;;;;;;17.50;99.90;;;;;;4988458;28;19922;-60
2023/08/01 07:59:12;;;;;;;;;;;17.60;99.90;;;;;;4988403;28;19929;-58
2023/08/01 08:01:40;;;;;;;;;;;17.60;99.90;;;;;;4988169;28;19922;-58
2023/08/01 08:04:06;;;;;;;;;;;17.60;99.90;;;;;;4988103;28;19937;-57
2023/08/01 08:06:33;;;;;;;;;;;17.70;99.90;;;;;;4986501;28;20381;-58
2023/08/01 08:09:00;;;;;;;;;;;17.70;99.90;;;;;;4988329;28;19933;-59
2023/08/01 08:11:27;;;;;;;;;;;17.70;99.90;;;;;;4989857;28;19929;-57
2023/08/01 08:13:54;;;;;;;;;;;17.70;99.90;;;;;;4990274;28;20008;-58
2023/08/01 08:16:20;;;;;;;;;;;17.70;99.90;;;;;;4990159;28;20009;-59
2023/08/01 08:18:47;;;;;;;;;;;17.70;99.90;;;;;;4990912;28;19926;-57
2023/08/01 08:21:14;;;;;;;;;;;17.80;99.90;;;;;;4989353;28;19926;-57
2023/08/01 08:23:41;;;;;;;;;;;17.90;99.90;;;;;;4990537;28;19922;-58
2023/08/01 08:26:08;;;;;;;;;;;18.00;99.90;;;;;;4989851;28;19925;-57
2023/08/01 08:28:34;;;;;;;;;;;17.90;99.90;;;;;;4990714;28;20373;-59
2023/08/01 08:31:02;;;;;;;;;;;17.80;99.90;;;;;;4989381;28;19930;-57
2023/08/01 08:33:29;;;;;;;;;;;17.70;99.90;;;;;;4990414;28;19991;-58
2023/08/01 08:35:55;;;;;;;;;;;17.60;99.90;;;;;;4989977;28;19921;-57
2023/08/01 08:38:22;;;;;;;;;;;17.50;99.90;;;;;;4989713;28;19928;-57
2023/08/01 08:40:56;;;;;;;;;;;17.60;99.90;;;;;;4988060;28;19969;-62
2023/08/01 08:43:24;;;;;;;;;;;17.80;99.90;;;;;;4988538;28;20411;-59
2023/08/01 08:45:51;;;;;;;;;;;18.00;99.90;;;;;;4987019;28;20340;-59
2023/08/01 08:48:19;;;;;;;;;;;18.20;99.90;;;;;;4986206;28;19952;-59
2023/08/01 08:50:46;;;;;;;;;;;18.30;99.90;;;;;;4987249;28;20019;-58
2023/08/01 08:53:13;;;;;;;;;;;18.40;99.90;;;;;;4984742;28;19925;-60
2023/08/01 08:55:40;;;;;;;;;;;18.50;99.90;;;;;;4986158;28;20368;-58
2023/08/01 08:58:07;;;;;;;;;;;18.60;99.90;;;;;;4986335;28;19926;-59
2023/08/01 09:00:37;;;;;;;;;;;18.70;99.90;;;;;;4987830;28;19929;-57
2023/08/01 09:03:04;;;;;;;;;;;18.60;99.90;;;;;;4987087;28;19929;-57
2023/08/01 09:05:34;;;;;;;;;;;18.50;99.90;;;;;;4987461;28;19972;-58
2023/08/01 09:08:01;;;;;;;;;;;18.50;99.90;;;;;;4969276;28;20575;-58
2023/08/01 09:10:28;;;;;;;;;;;18.60;99.90;;;;;;4969919;28;20531;-59
2023/08/01 09:12:54;;;;;;;;;;;18.50;99.90;;;;;;4986771;28;19922;-58
2023/08/01 09:15:21;;;;;;;;;;;18.50;99.90;;;;;;4987089;28;19922;-60
2023/08/01 09:17:51;;;;;;;;;;;18.50;99.90;;;;;;4985317;28;20021;-59
2023/08/01 09:20:18;;;;;;;;;;;18.70;99.90;;;;;;4976227;28;19926;-59
2023/08/01 09:22:45;;;;;;;;;;;18.60;99.90;;;;;;4986906;28;20479;-59
2023/08/01 09:25:12;;;;;;;;;;;18.60;99.90;;;;;;4986712;28;20334;-58
2023/08/01 09:27:39;;;;;;;;;;;18.60;99.90;;;;;;4986386;28;19933;-59
2023/08/01 09:30:11;;;;;;;;;;;18.60;99.90;;;;;;4986557;28;19922;-59
2023/08/01 09:32:38;;;;;;;;;;;18.60;99.90;;;;;;4976615;28;19930;-60
2023/08/01 09:35:05;;;;;;;;;;;18.50;99.90;;;;;;4986471;28;19925;-59
2023/08/01 09:37:38;;;;;;;;;;;18.60;99.90;;;;;;4985001;28;19998;-59
2023/08/01 09:40:06;;;;;;;;;;;18.70;99.90;;;;;;4982768;28;20536;-58
2023/08/01 09:42:42;;;;;;;;;;;18.70;99.90;;;;;;4985799;28;19977;-58
2023/08/01 09:45:15;;;;;;;;;;;18.70;99.90;;;;;;4983192;28;20016;-59
2023/08/01 09:47:42;;;;;;;;;;;18.70;99.90;;;;;;4983472;28;20392;-60
2023/08/01 09:50:20;;;;;;;;;;;18.80;99.90;;;;;;4984535;28;20284;-58
2023/08/01 09:52:53;;;;;;;;;;;18.70;99.90;;;;;;4969429;28;19935;-59
2023/08/01 09:55:38;;;;;;;;;;;18.70;99.90;;;;;;4985741;28;20443;-59
2023/08/01 09:58:05;;;;;;;;;;;19.00;99.90;;;;;;4984442;28;19926;-58
2023/08/01 10:00:34;;;;;;;;;;;19.30;99.90;;;;;;4986342;28;19926;-56
2023/08/01 10:03:00;;;;;;;;;;;19.60;99.90;;;;;;4985567;28;19926;-57
2023/08/01 10:05:34;;;;;;;;;;;20.00;99.90;;;;;;4985839;28;19933;-57
2023/08/01 10:08:02;;;;;;;;;;;20.20;99.90;;;;;;4985960;28;20024;-59
2023/08/01 10:10:29;;;;;;;;;;;20.10;99.90;;;;;;4999531;28;20256;-57
2023/08/01 10:12:58;;;;;;;;;;;19.90;99.90;;;;;;4988632;28;19925;-58
2023/08/01 10:15:25;;;;;;;;;;;19.60;99.90;;;;;;4990038;28;19947;-57
2023/08/01 10:17:52;;;;;;;;;;;19.70;99.90;;;;;;4976105;28;19922;-57
2023/08/01 10:20:21;;;;;;;;;;;19.90;99.90;;;;;;4987712;28;20341;-60
2023/08/01 10:22:50;;;;;;;;;;;20.10;99.90;;;;;;4994082;28;19932;-58
2023/08/01 10:25:18;;;;;;;;;;;20.30;99.90;;;;;;4989223;28;19925;-59
2023/08/01 10:27:45;;;;;;;;;;;20.40;99.90;;;;;;4986957;28;19921;-57
2023/08/01 10:30:11;;;;;;;;;;;20.40;99.90;;;;;;4990502;28;20361;-59
2023/08/01 10:32:39;;;;;;;;;;;20.20;99.90;;;;;;4986953;28;20008;-59
2023/08/01 10:35:06;;;;;;;;;;;20.20;99.90;;;;;;4984500;28;19929;-57
2023/08/01 10:37:42;;;;;;;;;;;20.10;99.90;;;;;;4985087;28;20154;-59
2023/08/01 10:40:09;;;;;;;;;;;20.00;99.90;;;;;;4985833;28;19922;-59
2023/08/01 10:42:42;;;;;;;;;;;20.20;99.90;;;;;;4986344;28;19950;-59
2023/08/01 10:45:25;;;;;;;;;;;20.20;99.90;;;;;;4986253;28;19933;-58
2023/08/01 10:48:08;;;;;;;;;;;20.10;99.90;;;;;;4986208;28;19926;-60
2023/08/01 10:50:35;;;;;;;;;;;20.30;99.90;;;;;;4986501;28;19952;-58
2023/08/01 10:53:06;;;;;;;;;;;20.50;99.90;;;;;;4991381;28;19941;-59
2023/08/01 10:55:42;;;;;;;;;;;20.60;99.90;;;;;;4985937;28;20336;-59
2023/08/01 10:58:09;;;;;;;;;;;20.60;99.90;;;;;;4983091;28;20424;-59
2023/08/01 11:00:36;;;;;;;;;;;20.80;99.90;;;;;;4976874;28;20400;-58
2023/08/01 11:03:02;;;;;;;;;;;20.90;99.90;;;;;;4981504;28;19921;-59
2023/08/01 11:05:29;;;;;;;;;;;21.00;99.90;;;;;;4989904;28;19988;-59
2023/08/01 11:07:57;;;;;;;;;;;21.10;99.90;;;;;;4990090;28;20463;-58
2023/08/01 11:10:27;;;;;;;;;;;20.70;99.90;;;;;;4990423;28;19929;-58
2023/08/01 11:12:54;;;;;;;;;;;20.90;99.90;;;;;;4988480;28;19944;-60
2023/08/01 11:15:20;;;;;;;;;;;21.20;99.90;;;;;;4990341;28;20580;-58
2023/08/01 11:17:48;;;;;;;;;;;21.50;99.90;;;;;;4981966;28;19932;-62
2023/08/01 11:20:15;;;;;;;;;;;21.60;99.90;;;;;;4985445;28;19926;-59
2023/08/01 11:22:56;;;;;;;;;;;21.40;99.90;;;;;;4980553;28;20340;-59
2023/08/01 11:25:33;;;;;;;;;;;21.50;99.90;;;;;;4975405;28;19922;-59
2023/08/01 11:28:04;;;;;;;;;;;21.50;99.90;;;;;;4977875;28;19929;-59
2023/08/01 11:30:32;;;;;;;;;;;21.40;99.90;;;;;;4975540;28;20008;-59
2023/08/01 11:32:59;;;;;;;;;;;21.40;99.90;;;;;;4973898;28;19928;-59
2023/08/01 11:35:26;;;;;;;;;;;21.20;99.90;;;;;;4977252;28;20464;-60
2023/08/01 11:37:52;;;;;;;;;;;21.00;99.90;;;;;;4979132;28;19922;-60
2023/08/01 11:40:19;;;;;;;;;;;21.10;99.90;;;;;;4977713;28;19972;-60
2023/08/01 11:42:51;;;;;;;;;;;21.30;99.80;;;;;;4972762;28;19926;-59
2023/08/01 11:45:18;;;;;;;;;;;21.30;99.70;;;;;;4980097;28;19944;-60
2023/08/01 11:47:45;;;;;;;;;;;21.30;99.80;;;;;;4970698;28;19932;-59
2023/08/01 11:50:12;;;;;;;;;;;21.20;99.50;;;;;;4980218;28;20052;-58
2023/08/01 11:52:39;;;;;;;;;;;21.10;99.50;;;;;;4975420;28;19932;-59
2023/08/01 11:55:06;;;;;;;;;;;21.20;99.70;;;;;;4980945;28;19966;-60
2023/08/01 11:57:32;;;;;;;;;;;21.40;99.70;;;;;;4974179;28;19926;-60
2023/08/01 11:59:59;;;;;;;;;;;21.40;99.80;;;;;;4972784;28;19926;-59
2023/08/01 12:02:32;;;;;;;;;;;21.40;99.90;;;;;;4975102;28;19922;-61
2023/08/01 12:04:58;;;;;;;;;;;21.50;99.50;;;;;;4966538;28;19949;-58
2023/08/01 12:07:25;;;;;;;;;;;21.70;98.20;;;;;;4968703;28;19980;-60
2023/08/01 12:09:59;;;;;;;;;;;21.70;98.10;;;;;;4968679;28;19922;-60
2023/08/01 12:12:26;;;;;;;;;;;21.80;98.60;;;;;;4968886;28;19941;-59
2023/08/01 12:14:53;;;;;;;;;;;21.80;99.00;;;;;;4968123;28;19925;-60
2023/08/01 12:17:21;;;;;;;;;;;21.70;98.80;;;;;;4968211;28;19968;-60
2023/08/01 12:19:48;;;;;;;;;;;21.80;98.70;;;;;;4968314;28;19926;-60
2023/08/01 12:22:15;;;;;;;;;;;21.70;98.40;;;;;;4969074;28;19932;-58
2023/08/01 12:24:42;;;;;;;;;;;21.70;98.70;;;;;;4976147;28;19925;-60
2023/08/01 12:27:09;;;;;;;;;;;21.80;98.70;;;;;;4973900;28;19933;-58
2023/08/01 12:29:36;;;;;;;;;;;21.50;98.40;;;;;;4966967;28;19929;-58
2023/08/01 12:32:03;;;;;;;;;;;21.60;98.60;;;;;;4966703;28;19926;-60
2023/08/01 12:34:30;;;;;;;;;;;21.60;98.70;;;;;;4967955;28;19945;-61
2023/08/01 12:36:57;;;;;;;;;;;21.60;98.80;;;;;;4968532;28;20033;-59
2023/08/01 12:39:25;;;;;;;;;;;21.60;98.90;;;;;;4967959;28;19934;-60
2023/08/01 12:41:53;;;;;;;;;;;21.60;98.70;;;;;;4967608;28;19930;-59
2023/08/01 12:44:20;;;;;;;;;;;21.50;98.40;;;;;;4965827;28;19922;-60
2023/08/01 12:46:47;;;;;;;;;;;21.50;98.30;;;;;;4967996;28;20035;-60
2023/08/01 12:49:14;;;;;;;;;;;21.50;98.70;;;;;;4967567;28;19932;-61
2023/08/01 12:51:41;;;;;;;;;;;21.60;99.00;;;;;;4967507;28;19922;-59
2023/08/01 12:54:08;;;;;;;;;;;21.60;98.90;;;;;;4969537;28;19930;-60
2023/08/01 12:56:35;;;;;;;;;;;21.70;99.40;;;;;;4967037;28;19926;-60
2023/08/01 12:59:02;;;;;;;;;;;21.70;98.30;;;;;;4970487;28;20051;-60
2023/08/01 13:01:28;;;;;;;;;;;21.60;98.40;;;;;;4965517;28;20626;-60
2023/08/01 13:03:55;;;;;;;;;;;21.50;98.70;;;;;;4965890;28;20000;-58
2023/08/01 13:06:22;;;;;;;;;;;21.70;98.80;;;;;;4967296;28;19926;-59
2023/08/01 13:08:49;;;;;;;;;;;21.60;99.10;;;;;;4967568;28;20141;-60
2023/08/01 13:11:16;;;;;;;;;;;21.50;98.80;;;;;;4966449;28;19950;-59
2023/08/01 13:13:43;;;;;;;;;;;21.60;99.00;;;;;;4967040;28;19948;-59
2023/08/01 13:16:10;;;;;;;;;;;21.80;99.00;;;;;;4966861;28;19936;-60
2023/08/01 13:18:43;;;;;;;;;;;21.80;99.00;;;;;;4967417;28;19980;-60
2023/08/01 13:21:11;;;;;;;;;;;21.90;98.30;;;;;;4963510;28;19926;-59
2023/08/01 13:23:37;;;;;;;;;;;22.20;98.30;;;;;;4966911;28;19926;-59
2023/08/01 13:26:04;;;;;;;;;;;22.30;98.20;;;;;;4965611;28;20365;-60
2023/08/01 13:28:31;;;;;;;;;;;22.20;98.60;;;;;;4966882;28;19926;-60
2023/08/01 13:30:58;;;;;;;;;;;21.90;97.70;;;;;;4967095;28;19949;-57
2023/08/01 13:33:25;;;;;;;;;;;21.90;98.20;;;;;;4985101;28;20018;-59
2023/08/01 13:35:52;;;;;;;;;;;22.10;97.70;;;;;;4966866;28;19922;-59
2023/08/01 13:38:19;;;;;;;;;;;22.30;97.80;;;;;;4966819;28;20177;-58
2023/08/01 13:40:46;;;;;;;;;;;22.60;97.70;;;;;;4966742;28;19972;-58
2023/08/01 13:43:13;;;;;;;;;;;22.70;97.30;;;;;;4966445;28;19933;-58
2023/08/01 13:45:40;;;;;;;;;;;22.70;97.00;;;;;;4966938;28;19926;-58
2023/08/01 13:48:07;;;;;;;;;;;22.70;96.70;;;;;;4966899;28;20004;-59
2023/08/01 13:50:34;;;;;;;;;;;22.70;96.40;;;;;;4959298;28;19936;-59
2023/08/01 13:53:01;;;;;;;;;;;22.60;96.50;;;;;;4966353;28;19933;-58
2023/08/01 13:55:28;;;;;;;;;;;22.80;96.80;;;;;;4967558;28;19941;-59
2023/08/01 13:57:55;;;;;;;;;;;22.80;96.80;;;;;;4966238;28;20380;-59
2023/08/01 14:00:21;;;;;;;;;;;22.80;96.80;;;;;;4979134;28;19926;-59
2023/08/01 14:02:51;;;;;;;;;;;22.80;97.10;;;;;;4967797;28;20185;-59
2023/08/01 14:05:18;;;;;;;;;;;23.00;97.30;;;;;;4959281;28;20028;-64
2023/08/01 14:07:45;;;;;;;;;;;23.00;96.00;;;;;;4965745;28;19922;-59
2023/08/01 14:10:12;;;;;;;;;;;22.80;95.80;;;;;;4966760;28;19922;-59
2023/08/01 14:12:39;;;;;;;;;;;22.80;96.20;;;;;;4970426;28;19930;-58
2023/08/01 14:15:06;;;;;;;;;;;22.60;96.40;;;;;;4969287;28;19929;-58
2023/08/01 14:17:32;;;;;;;;;;;22.50;96.50;;;;;;4973493;28;19929;-59